Lambert St Louis International Airport
KSTL : now visible

Airfield :











YOU CAN JOIN US ON...

 
LOGIN :

Register | Disclaimer

   EN    FR    IT 

 









Legend :    VFR   Marginal VFR   IFR   Intensive IFR   Very Intensive IFR
Visi :
Ceiling :
>= 8 km
>= 3000ft
5 to 8 km
1000 to 3000 ft
1500m to 5 km
500 to 1000 ft
800 to 1500m
200 to 500 ft
< 800m
< 200 ft
Symbols :   Thunderstorms  Fog  Heavy snow  Heavy precipitations  Wind > 20 kt






- Airport Elevation : 618 ft
- IATA code : STL


KSTL - Lambert St Louis International

CURRENT METAR :
  • 141651Z 30005KT 10SM FEW030 SCT060 BKN250 03/M03 A3030 RMK AO2 SLP271 T00281033

EXPIRED METARs :
  • 141551Z VRB05KT 10SM BKN060 02/M04 A3029 RMK AO2 SLP265 T00221039

TAF KSTL
Valid from the 14 at 18:00 until the 16 at 00:00 UTC


141737Z 1418/1524 31008KT P6SM FEW025 SCT060
FM150100 VRB04KT P6SM FEW250
FM150900 VRB04KT 6SM BR SKC
FM151400 28004KT P6SM FEW200



MET'MAP, your aeronautical weather chart ! - Copyright ORBIFLY December 2007 - Disclaimer

ORBIFLY MET'MAP TEAM :

Programming & Development : Alexandra Zaïnal
Concept & Development : Baudouin d'Aumeries
Co-Development & Prog : Marc-Olivier Méhu
Technical & hardware support : Manuel Goepfert

Contact : metmap@orbifly.com




SOURCES & CREDITS :

   NOAA       Earth
Advisory